sensor_id;sensor_type;location;lat;lon;timestamp;P1;durP1;ratioP1;P2;durP2;ratioP2
11222;SDS011;5668;52.012;8.724;2023-04-05T00:00:15;8.03;;;6.07;;
11222;SDS011;5668;52.012;8.724;2023-04-05T00:02:45;6.77;;;6.00;;
11222;SDS011;5668;52.012;8.724;2023-04-05T00:05:13;8.27;;;6.27;;
11222;SDS011;5668;52.012;8.724;2023-04-05T00:07:53;7.13;;;6.43;;
11222;SDS011;5668;52.012;8.724;2023-04-05T00:10:20;6.47;;;5.73;;
11222;SDS011;5668;52.012;8.724;2023-04-05T00:12:48;6.77;;;5.77;;
11222;SDS011;5668;52.012;8.724;2023-04-05T00:15:15;7.37;;;5.97;;
11222;SDS011;5668;52.012;8.724;2023-04-05T00:17:44;8.07;;;6.33;;
11222;SDS011;5668;52.012;8.724;2023-04-05T00:20:12;6.90;;;6.30;;
11222;SDS011;5668;52.012;8.724;2023-04-05T00:22:40;7.47;;;6.40;;
11222;SDS011;5668;52.012;8.724;2023-04-05T00:25:08;7.27;;;6.57;;
11222;SDS011;5668;52.012;8.724;2023-04-05T00:27:36;6.90;;;6.20;;
11222;SDS011;5668;52.012;8.724;2023-04-05T00:30:03;7.20;;;6.50;;
11222;SDS011;5668;52.012;8.724;2023-04-05T00:32:31;7.40;;;6.17;;
11222;SDS011;5668;52.012;8.724;2023-04-05T00:35:00;7.87;;;6.00;;
11222;SDS011;5668;52.012;8.724;2023-04-05T00:37:28;7.00;;;6.30;;
11222;SDS011;5668;52.012;8.724;2023-04-05T00:39:55;6.50;;;5.90;;
11222;SDS011;5668;52.012;8.724;2023-04-05T00:42:23;7.57;;;6.30;;
11222;SDS011;5668;52.012;8.724;2023-04-05T00:44:50;8.80;;;6.63;;
11222;SDS011;5668;52.012;8.724;2023-04-05T00:47:17;7.47;;;6.77;;
11222;SDS011;5668;52.012;8.724;2023-04-05T00:49:45;7.13;;;6.10;;
11222;SDS011;5668;52.012;8.724;2023-04-05T00:52:13;8.07;;;6.30;;
11222;SDS011;5668;52.012;8.724;2023-04-05T00:54:43;8.43;;;6.40;;
11222;SDS011;5668;52.012;8.724;2023-04-05T00:57:10;7.10;;;6.27;;
11222;SDS011;5668;52.012;8.724;2023-04-05T00:59:38;6.90;;;6.20;;
11222;SDS011;5668;52.012;8.724;2023-04-05T01:02:07;8.17;;;6.27;;
11222;SDS011;5668;52.012;8.724;2023-04-05T01:04:41;9.87;;;7.17;;
11222;SDS011;5668;52.012;8.724;2023-04-05T01:07:19;7.03;;;6.33;;
11222;SDS011;5668;52.012;8.724;2023-04-05T01:09:57;8.43;;;6.40;;
11222;SDS011;5668;52.012;8.724;2023-04-05T01:12:26;7.07;;;6.37;;
11222;SDS011;5668;52.012;8.724;2023-04-05T01:14:57;6.93;;;6.23;;
11222;SDS011;5668;52.012;8.724;2023-04-05T01:17:26;8.63;;;6.23;;
11222;SDS011;5668;52.012;8.724;2023-04-05T01:20:01;7.20;;;6.43;;
11222;SDS011;5668;52.012;8.724;2023-04-05T01:25:53;7.97;;;6.13;;
11222;SDS011;5668;52.012;8.724;2023-04-05T01:31:38;6.57;;;5.60;;
11222;SDS011;5668;52.012;8.724;2023-04-05T01:34:12;5.50;;;5.00;;
11222;SDS011;5668;52.012;8.724;2023-04-05T01:36:49;4.97;;;4.57;;
11222;SDS011;5668;52.012;8.724;2023-04-05T01:39:22;6.13;;;4.90;;
11222;SDS011;5668;52.012;8.724;2023-04-05T01:41:50;6.00;;;5.17;;
11222;SDS011;5668;52.012;8.724;2023-04-05T01:44:23;5.87;;;5.00;;
11222;SDS011;5668;52.012;8.724;2023-04-05T01:46:52;6.13;;;5.47;;
11222;SDS011;5668;52.012;8.724;2023-04-05T01:49:19;5.87;;;5.27;;
11222;SDS011;5668;52.012;8.724;2023-04-05T01:51:47;6.87;;;4.73;;
11222;SDS011;5668;52.012;8.724;2023-04-05T01:54:15;6.53;;;5.83;;
11222;SDS011;5668;52.012;8.724;2023-04-05T01:56:42;5.37;;;4.87;;
11222;SDS011;5668;52.012;8.724;2023-04-05T01:59:10;5.50;;;5.00;;
11222;SDS011;5668;52.012;8.724;2023-04-05T02:01:37;7.17;;;5.73;;
11222;SDS011;5668;52.012;8.724;2023-04-05T02:04:06;6.27;;;5.47;;
11222;SDS011;5668;52.012;8.724;2023-04-05T02:06:33;7.13;;;5.10;;
11222;SDS011;5668;52.012;8.724;2023-04-05T02:09:00;5.63;;;5.13;;
11222;SDS011;5668;52.012;8.724;2023-04-05T02:11:27;7.20;;;5.40;;
11222;SDS011;5668;52.012;8.724;2023-04-05T02:13:55;6.23;;;5.50;;
11222;SDS011;5668;52.012;8.724;2023-04-05T02:16:22;5.73;;;5.03;;
11222;SDS011;5668;52.012;8.724;2023-04-05T02:18:51;6.57;;;5.47;;
11222;SDS011;5668;52.012;8.724;2023-04-05T02:21:23;6.10;;;5.50;;
11222;SDS011;5668;52.012;8.724;2023-04-05T02:23:50;6.27;;;5.53;;
11222;SDS011;5668;52.012;8.724;2023-04-05T02:26:17;5.30;;;4.73;;
11222;SDS011;5668;52.012;8.724;2023-04-05T02:28:45;6.70;;;6.00;;
11222;SDS011;5668;52.012;8.724;2023-04-05T02:31:12;5.77;;;4.80;;
11222;SDS011;5668;52.012;8.724;2023-04-05T02:33:40;5.67;;;5.07;;
11222;SDS011;5668;52.012;8.724;2023-04-05T02:36:07;6.27;;;5.20;;
11222;SDS011;5668;52.012;8.724;2023-04-05T02:38:38;5.87;;;5.20;;
11222;SDS011;5668;52.012;8.724;2023-04-05T02:41:07;6.30;;;5.70;;
11222;SDS011;5668;52.012;8.724;2023-04-05T02:43:35;5.93;;;4.90;;
11222;SDS011;5668;52.012;8.724;2023-04-05T02:46:03;5.70;;;5.03;;
11222;SDS011;5668;52.012;8.724;2023-04-05T02:48:30;6.77;;;5.50;;
11222;SDS011;5668;52.012;8.724;2023-04-05T02:50:57;6.20;;;4.83;;
11222;SDS011;5668;52.012;8.724;2023-04-05T02:53:25;6.73;;;5.53;;
11222;SDS011;5668;52.012;8.724;2023-04-05T02:55:54;5.67;;;5.10;;
11222;SDS011;5668;52.012;8.724;2023-04-05T02:58:23;6.60;;;5.03;;
11222;SDS011;5668;52.012;8.724;2023-04-05T03:00:51;6.20;;;5.17;;
11222;SDS011;5668;52.012;8.724;2023-04-05T03:03:19;5.40;;;4.40;;
11222;SDS011;5668;52.012;8.724;2023-04-05T03:05:47;5.77;;;4.90;;
11222;SDS011;5668;52.012;8.724;2023-04-05T03:08:21;6.53;;;4.70;;
11222;SDS011;5668;52.012;8.724;2023-04-05T03:10:49;5.90;;;4.80;;
11222;SDS011;5668;52.012;8.724;2023-04-05T03:13:18;6.07;;;4.90;;
11222;SDS011;5668;52.012;8.724;2023-04-05T03:15:45;5.90;;;5.07;;
11222;SDS011;5668;52.012;8.724;2023-04-05T03:18:12;5.27;;;4.80;;
11222;SDS011;5668;52.012;8.724;2023-04-05T03:20:40;5.57;;;4.70;;
11222;SDS011;5668;52.012;8.724;2023-04-05T03:23:09;5.67;;;4.73;;
11222;SDS011;5668;52.012;8.724;2023-04-05T03:25:37;6.80;;;4.77;;
11222;SDS011;5668;52.012;8.724;2023-04-05T03:28:05;5.23;;;4.73;;
11222;SDS011;5668;52.012;8.724;2023-04-05T03:30:34;6.13;;;4.77;;
11222;SDS011;5668;52.012;8.724;2023-04-05T03:33:02;5.70;;;4.63;;
11222;SDS011;5668;52.012;8.724;2023-04-05T03:35:30;5.70;;;4.20;;
11222;SDS011;5668;52.012;8.724;2023-04-05T03:37:57;6.10;;;4.63;;
11222;SDS011;5668;52.012;8.724;2023-04-05T03:40:24;6.07;;;4.47;;
11222;SDS011;5668;52.012;8.724;2023-04-05T03:42:51;4.43;;;3.93;;
11222;SDS011;5668;52.012;8.724;2023-04-05T03:45:19;5.13;;;4.60;;
11222;SDS011;5668;52.012;8.724;2023-04-05T03:47:47;4.50;;;3.97;;
11222;SDS011;5668;52.012;8.724;2023-04-05T03:50:15;4.57;;;3.80;;
11222;SDS011;5668;52.012;8.724;2023-04-05T03:52:43;4.30;;;3.87;;
11222;SDS011;5668;52.012;8.724;2023-04-05T03:55:10;5.10;;;4.53;;
11222;SDS011;5668;52.012;8.724;2023-04-05T03:57:38;4.03;;;3.60;;
11222;SDS011;5668;52.012;8.724;2023-04-05T04:00:07;4.20;;;3.67;;
11222;SDS011;5668;52.012;8.724;2023-04-05T04:02:38;4.23;;;3.80;;
11222;SDS011;5668;52.012;8.724;2023-04-05T04:05:08;4.70;;;4.00;;
11222;SDS011;5668;52.012;8.724;2023-04-05T04:07:37;4.87;;;3.97;;
11222;SDS011;5668;52.012;8.724;2023-04-05T04:10:06;4.50;;;4.03;;
11222;SDS011;5668;52.012;8.724;2023-04-05T04:12:34;4.70;;;3.80;;
11222;SDS011;5668;52.012;8.724;2023-04-05T04:15:02;3.90;;;3.60;;
11222;SDS011;5668;52.012;8.724;2023-04-05T04:17:30;4.33;;;3.93;;
11222;SDS011;5668;52.012;8.724;2023-04-05T04:19:59;5.90;;;3.50;;
11222;SDS011;5668;52.012;8.724;2023-04-05T04:22:33;4.37;;;3.73;;
11222;SDS011;5668;52.012;8.724;2023-04-05T04:25:02;8.17;;;4.00;;
11222;SDS011;5668;52.012;8.724;2023-04-05T04:27:34;5.50;;;3.90;;
11222;SDS011;5668;52.012;8.724;2023-04-05T04:30:06;4.63;;;4.10;;
11222;SDS011;5668;52.012;8.724;2023-04-05T04:32:34;5.20;;;4.70;;
11222;SDS011;5668;52.012;8.724;2023-04-05T04:35:18;4.37;;;3.97;;
11222;SDS011;5668;52.012;8.724;2023-04-05T04:37:55;5.20;;;4.67;;
11222;SDS011;5668;52.012;8.724;2023-04-05T04:40:23;4.77;;;4.30;;
11222;SDS011;5668;52.012;8.724;2023-04-05T04:42:53;6.23;;;4.10;;
11222;SDS011;5668;52.012;8.724;2023-04-05T04:45:22;5.80;;;4.53;;
11222;SDS011;5668;52.012;8.724;2023-04-05T04:47:50;6.53;;;4.90;;
11222;SDS011;5668;52.012;8.724;2023-04-05T04:50:20;6.37;;;4.30;;
11222;SDS011;5668;52.012;8.724;2023-04-05T04:52:48;5.67;;;5.00;;
11222;SDS011;5668;52.012;8.724;2023-04-05T04:55:16;5.50;;;4.90;;
11222;SDS011;5668;52.012;8.724;2023-04-05T04:57:50;5.07;;;4.27;;
11222;SDS011;5668;52.012;8.724;2023-04-05T05:00:18;7.23;;;4.63;;
11222;SDS011;5668;52.012;8.724;2023-04-05T05:02:46;5.13;;;4.63;;
11222;SDS011;5668;52.012;8.724;2023-04-05T05:05:13;5.70;;;4.90;;
11222;SDS011;5668;52.012;8.724;2023-04-05T05:07:40;5.33;;;4.83;;
11222;SDS011;5668;52.012;8.724;2023-04-05T05:10:08;5.63;;;4.83;;
11222;SDS011;5668;52.012;8.724;2023-04-05T05:12:41;5.30;;;4.70;;
11222;SDS011;5668;52.012;8.724;2023-04-05T05:15:09;5.33;;;4.83;;
11222;SDS011;5668;52.012;8.724;2023-04-05T05:17:37;6.03;;;4.70;;
11222;SDS011;5668;52.012;8.724;2023-04-05T05:20:05;5.83;;;5.17;;
11222;SDS011;5668;52.012;8.724;2023-04-05T05:22:35;6.70;;;4.90;;
11222;SDS011;5668;52.012;8.724;2023-04-05T05:25:02;6.67;;;4.87;;
11222;SDS011;5668;52.012;8.724;2023-04-05T05:27:30;6.13;;;4.50;;
11222;SDS011;5668;52.012;8.724;2023-04-05T05:30:00;5.77;;;5.27;;
11222;SDS011;5668;52.012;8.724;2023-04-05T05:32:27;5.83;;;4.83;;
11222;SDS011;5668;52.012;8.724;2023-04-05T05:34:54;6.20;;;5.00;;
11222;SDS011;5668;52.012;8.724;2023-04-05T05:37:28;6.17;;;5.57;;
11222;SDS011;5668;52.012;8.724;2023-04-05T05:39:56;5.83;;;5.03;;
11222;SDS011;5668;52.012;8.724;2023-04-05T05:42:24;6.77;;;5.30;;
11222;SDS011;5668;52.012;8.724;2023-04-05T05:44:52;5.90;;;5.27;;
11222;SDS011;5668;52.012;8.724;2023-04-05T05:47:20;6.57;;;5.40;;
11222;SDS011;5668;52.012;8.724;2023-04-05T05:49:48;6.33;;;5.27;;
11222;SDS011;5668;52.012;8.724;2023-04-05T05:52:15;6.77;;;6.13;;
11222;SDS011;5668;52.012;8.724;2023-04-05T05:54:42;7.50;;;6.17;;
11222;SDS011;5668;52.012;8.724;2023-04-05T05:57:10;8.83;;;6.80;;
11222;SDS011;5668;52.012;8.724;2023-04-05T05:59:38;9.13;;;7.43;;
11222;SDS011;5668;52.012;8.724;2023-04-05T06:02:05;9.83;;;7.77;;
11222;SDS011;5668;52.012;8.724;2023-04-05T06:04:34;9.57;;;7.30;;
11222;SDS011;5668;52.012;8.724;2023-04-05T06:07:01;8.13;;;7.00;;
11222;SDS011;5668;52.012;8.724;2023-04-05T06:09:29;7.33;;;6.07;;
11222;SDS011;5668;52.012;8.724;2023-04-05T06:11:59;6.73;;;6.00;;
11222;SDS011;5668;52.012;8.724;2023-04-05T06:14:26;6.57;;;5.97;;
11222;SDS011;5668;52.012;8.724;2023-04-05T06:16:55;7.13;;;5.87;;
11222;SDS011;5668;52.012;8.724;2023-04-05T06:19:22;7.93;;;5.67;;
11222;SDS011;5668;52.012;8.724;2023-04-05T06:21:51;7.47;;;5.60;;
11222;SDS011;5668;52.012;8.724;2023-04-05T06:24:19;6.60;;;5.90;;
11222;SDS011;5668;52.012;8.724;2023-04-05T06:26:46;6.60;;;5.70;;
11222;SDS011;5668;52.012;8.724;2023-04-05T06:29:14;7.73;;;5.63;;
11222;SDS011;5668;52.012;8.724;2023-04-05T06:31:42;9.10;;;5.77;;
11222;SDS011;5668;52.012;8.724;2023-04-05T06:34:10;6.97;;;6.20;;
11222;SDS011;5668;52.012;8.724;2023-04-05T06:36:37;9.40;;;5.87;;
11222;SDS011;5668;52.012;8.724;2023-04-05T06:39:06;6.83;;;5.73;;
11222;SDS011;5668;52.012;8.724;2023-04-05T06:41:33;6.77;;;5.27;;
11222;SDS011;5668;52.012;8.724;2023-04-05T06:44:00;8.63;;;6.00;;
11222;SDS011;5668;52.012;8.724;2023-04-05T06:46:28;7.97;;;6.03;;
11222;SDS011;5668;52.012;8.724;2023-04-05T06:48:55;8.83;;;5.90;;
11222;SDS011;5668;52.012;8.724;2023-04-05T06:51:23;6.07;;;5.50;;
11222;SDS011;5668;52.012;8.724;2023-04-05T06:53:51;7.20;;;5.97;;
11222;SDS011;5668;52.012;8.724;2023-04-05T06:56:19;6.77;;;6.13;;
11222;SDS011;5668;52.012;8.724;2023-04-05T06:58:47;8.43;;;5.53;;
11222;SDS011;5668;52.012;8.724;2023-04-05T07:01:14;7.33;;;5.53;;
11222;SDS011;5668;52.012;8.724;2023-04-05T07:03:42;6.53;;;5.73;;
11222;SDS011;5668;52.012;8.724;2023-04-05T07:06:10;8.03;;;5.80;;
11222;SDS011;5668;52.012;8.724;2023-04-05T07:08:37;5.90;;;5.30;;
11222;SDS011;5668;52.012;8.724;2023-04-05T07:11:04;5.60;;;5.10;;
11222;SDS011;5668;52.012;8.724;2023-04-05T07:13:33;8.30;;;5.87;;
11222;SDS011;5668;52.012;8.724;2023-04-05T07:16:00;5.97;;;5.23;;
11222;SDS011;5668;52.012;8.724;2023-04-05T07:18:28;7.03;;;5.50;;
11222;SDS011;5668;52.012;8.724;2023-04-05T07:20:55;6.60;;;6.00;;
11222;SDS011;5668;52.012;8.724;2023-04-05T07:23:25;6.30;;;5.40;;
11222;SDS011;5668;52.012;8.724;2023-04-05T07:25:53;7.10;;;5.90;;
11222;SDS011;5668;52.012;8.724;2023-04-05T07:28:20;8.17;;;5.73;;
11222;SDS011;5668;52.012;8.724;2023-04-05T07:30:49;7.77;;;5.80;;
11222;SDS011;5668;52.012;8.724;2023-04-05T07:33:16;7.17;;;5.57;;
11222;SDS011;5668;52.012;8.724;2023-04-05T07:35:45;5.87;;;4.70;;
11222;SDS011;5668;52.012;8.724;2023-04-05T07:38:18;4.80;;;4.37;;
11222;SDS011;5668;52.012;8.724;2023-04-05T07:40:46;5.13;;;4.50;;
11222;SDS011;5668;52.012;8.724;2023-04-05T07:43:14;5.57;;;4.30;;
11222;SDS011;5668;52.012;8.724;2023-04-05T07:45:42;4.67;;;4.17;;
11222;SDS011;5668;52.012;8.724;2023-04-05T07:48:10;6.67;;;4.27;;
11222;SDS011;5668;52.012;8.724;2023-04-05T07:50:38;8.70;;;4.40;;
11222;SDS011;5668;52.012;8.724;2023-04-05T07:53:06;4.83;;;4.23;;
11222;SDS011;5668;52.012;8.724;2023-04-05T07:55:36;5.13;;;4.40;;
11222;SDS011;5668;52.012;8.724;2023-04-05T07:58:03;4.93;;;3.77;;
11222;SDS011;5668;52.012;8.724;2023-04-05T08:00:30;9.17;;;4.27;;
11222;SDS011;5668;52.012;8.724;2023-04-05T08:02:58;5.83;;;4.10;;
11222;SDS011;5668;52.012;8.724;2023-04-05T08:05:27;8.23;;;4.57;;
11222;SDS011;5668;52.012;8.724;2023-04-05T08:07:55;5.13;;;3.93;;
11222;SDS011;5668;52.012;8.724;2023-04-05T08:10:23;4.57;;;3.90;;
11222;SDS011;5668;52.012;8.724;2023-04-05T08:12:51;3.93;;;3.50;;
11222;SDS011;5668;52.012;8.724;2023-04-05T08:15:18;6.23;;;4.20;;
11222;SDS011;5668;52.012;8.724;2023-04-05T08:17:46;5.00;;;3.73;;
11222;SDS011;5668;52.012;8.724;2023-04-05T08:20:13;5.27;;;3.90;;
11222;SDS011;5668;52.012;8.724;2023-04-05T08:22:42;3.67;;;3.33;;
11222;SDS011;5668;52.012;8.724;2023-04-05T08:25:10;3.80;;;3.37;;
11222;SDS011;5668;52.012;8.724;2023-04-05T08:27:37;4.47;;;3.47;;
11222;SDS011;5668;52.012;8.724;2023-04-05T08:30:05;4.63;;;3.70;;
11222;SDS011;5668;52.012;8.724;2023-04-05T08:32:34;3.87;;;3.20;;
11222;SDS011;5668;52.012;8.724;2023-04-05T08:35:01;4.50;;;3.00;;
11222;SDS011;5668;52.012;8.724;2023-04-05T08:37:32;5.83;;;3.20;;
11222;SDS011;5668;52.012;8.724;2023-04-05T08:40:01;3.90;;;3.33;;
11222;SDS011;5668;52.012;8.724;2023-04-05T08:42:30;3.87;;;3.00;;
11222;SDS011;5668;52.012;8.724;2023-04-05T08:45:01;5.87;;;3.60;;
11222;SDS011;5668;52.012;8.724;2023-04-05T08:47:30;4.73;;;3.73;;
11222;SDS011;5668;52.012;8.724;2023-04-05T08:50:00;5.47;;;3.67;;
11222;SDS011;5668;52.012;8.724;2023-04-05T08:52:29;4.10;;;3.13;;
11222;SDS011;5668;52.012;8.724;2023-04-05T08:54:57;4.50;;;3.40;;
11222;SDS011;5668;52.012;8.724;2023-04-05T08:57:26;4.07;;;3.67;;
11222;SDS011;5668;52.012;8.724;2023-04-05T08:59:56;5.47;;;3.63;;
11222;SDS011;5668;52.012;8.724;2023-04-05T09:02:26;4.40;;;3.40;;
11222;SDS011;5668;52.012;8.724;2023-04-05T09:04:54;3.37;;;2.77;;
11222;SDS011;5668;52.012;8.724;2023-04-05T09:07:22;3.93;;;3.30;;
11222;SDS011;5668;52.012;8.724;2023-04-05T09:09:55;3.80;;;3.00;;
11222;SDS011;5668;52.012;8.724;2023-04-05T09:12:25;4.33;;;3.00;;
11222;SDS011;5668;52.012;8.724;2023-04-05T09:14:54;4.53;;;3.50;;
11222;SDS011;5668;52.012;8.724;2023-04-05T09:17:22;2.97;;;2.67;;
11222;SDS011;5668;52.012;8.724;2023-04-05T09:19:50;3.63;;;3.00;;
11222;SDS011;5668;52.012;8.724;2023-04-05T09:22:17;3.47;;;2.60;;
11222;SDS011;5668;52.012;8.724;2023-04-05T09:24:45;6.03;;;3.57;;
11222;SDS011;5668;52.012;8.724;2023-04-05T09:27:13;4.83;;;3.30;;
11222;SDS011;5668;52.012;8.724;2023-04-05T09:29:43;4.90;;;3.50;;
11222;SDS011;5668;52.012;8.724;2023-04-05T09:32:11;3.67;;;3.27;;
11222;SDS011;5668;52.012;8.724;2023-04-05T09:34:40;4.43;;;3.27;;
11222;SDS011;5668;52.012;8.724;2023-04-05T09:37:12;3.63;;;3.00;;
11222;SDS011;5668;52.012;8.724;2023-04-05T09:39:40;3.67;;;3.00;;
11222;SDS011;5668;52.012;8.724;2023-04-05T09:42:09;3.33;;;3.03;;
11222;SDS011;5668;52.012;8.724;2023-04-05T09:44:49;3.20;;;2.90;;
11222;SDS011;5668;52.012;8.724;2023-04-05T09:47:18;5.03;;;3.40;;
11222;SDS011;5668;52.012;8.724;2023-04-05T09:49:46;3.10;;;2.80;;
11222;SDS011;5668;52.012;8.724;2023-04-05T09:52:20;3.70;;;2.77;;
11222;SDS011;5668;52.012;8.724;2023-04-05T09:54:49;3.17;;;2.80;;
11222;SDS011;5668;52.012;8.724;2023-04-05T09:57:18;3.57;;;2.90;;
11222;SDS011;5668;52.012;8.724;2023-04-05T09:59:48;4.03;;;3.10;;
11222;SDS011;5668;52.012;8.724;2023-04-05T10:02:16;4.00;;;3.47;;
11222;SDS011;5668;52.012;8.724;2023-04-05T10:04:44;3.73;;;3.23;;
11222;SDS011;5668;52.012;8.724;2023-04-05T10:07:12;4.43;;;3.30;;
11222;SDS011;5668;52.012;8.724;2023-04-05T10:09:41;4.00;;;3.10;;
11222;SDS011;5668;52.012;8.724;2023-04-05T10:12:09;4.33;;;2.90;;
11222;SDS011;5668;52.012;8.724;2023-04-05T10:14:43;4.20;;;2.93;;
11222;SDS011;5668;52.012;8.724;2023-04-05T10:17:13;3.57;;;3.00;;
11222;SDS011;5668;52.012;8.724;2023-04-05T10:19:54;4.00;;;3.20;;
11222;SDS011;5668;52.012;8.724;2023-04-05T10:22:40;3.50;;;2.67;;
11222;SDS011;5668;52.012;8.724;2023-04-05T10:25:23;3.60;;;3.00;;
11222;SDS011;5668;52.012;8.724;2023-04-05T10:27:58;3.67;;;3.30;;
11222;SDS011;5668;52.012;8.724;2023-04-05T10:30:33;4.10;;;3.00;;
11222;SDS011;5668;52.012;8.724;2023-04-05T10:33:15;3.57;;;3.23;;
11222;SDS011;5668;52.012;8.724;2023-04-05T10:35:55;4.70;;;3.20;;
11222;SDS011;5668;52.012;8.724;2023-04-05T10:38:28;4.50;;;3.33;;
11222;SDS011;5668;52.012;8.724;2023-04-05T10:41:00;3.73;;;3.07;;
11222;SDS011;5668;52.012;8.724;2023-04-05T10:43:32;3.20;;;2.90;;
11222;SDS011;5668;52.012;8.724;2023-04-05T10:46:02;3.50;;;2.90;;
11222;SDS011;5668;52.012;8.724;2023-04-05T10:48:35;4.03;;;3.20;;
11222;SDS011;5668;52.012;8.724;2023-04-05T10:51:08;3.40;;;2.73;;
11222;SDS011;5668;52.012;8.724;2023-04-05T10:53:37;4.67;;;3.47;;
11222;SDS011;5668;52.012;8.724;2023-04-05T10:56:05;5.60;;;3.23;;
11222;SDS011;5668;52.012;8.724;2023-04-05T10:58:34;3.43;;;3.13;;
11222;SDS011;5668;52.012;8.724;2023-04-05T11:01:04;3.20;;;2.90;;
11222;SDS011;5668;52.012;8.724;2023-04-05T11:03:48;4.00;;;3.17;;
11222;SDS011;5668;52.012;8.724;2023-04-05T11:06:16;4.07;;;3.40;;
11222;SDS011;5668;52.012;8.724;2023-04-05T11:08:45;4.23;;;3.40;;
11222;SDS011;5668;52.012;8.724;2023-04-05T11:11:14;3.50;;;3.20;;
11222;SDS011;5668;52.012;8.724;2023-04-05T11:13:46;5.53;;;3.00;;
11222;SDS011;5668;52.012;8.724;2023-04-05T11:16:15;4.67;;;2.93;;
11222;SDS011;5668;52.012;8.724;2023-04-05T11:18:46;3.23;;;2.50;;
11222;SDS011;5668;52.012;8.724;2023-04-05T11:21:19;3.63;;;2.83;;
11222;SDS011;5668;52.012;8.724;2023-04-05T11:23:58;3.77;;;2.70;;
11222;SDS011;5668;52.012;8.724;2023-04-05T11:26:30;3.53;;;2.60;;
11222;SDS011;5668;52.012;8.724;2023-04-05T11:28:58;4.87;;;2.93;;
11222;SDS011;5668;52.012;8.724;2023-04-05T11:31:25;3.00;;;2.70;;
11222;SDS011;5668;52.012;8.724;2023-04-05T11:33:54;3.07;;;2.63;;
11222;SDS011;5668;52.012;8.724;2023-04-05T11:36:31;4.23;;;3.00;;
11222;SDS011;5668;52.012;8.724;2023-04-05T11:41:52;3.87;;;2.77;;
11222;SDS011;5668;52.012;8.724;2023-04-05T11:44:29;3.67;;;3.00;;
11222;SDS011;5668;52.012;8.724;2023-04-05T11:47:06;2.93;;;2.60;;
11222;SDS011;5668;52.012;8.724;2023-04-05T11:49:36;3.90;;;2.83;;
11222;SDS011;5668;52.012;8.724;2023-04-05T11:52:11;4.07;;;3.33;;
11222;SDS011;5668;52.012;8.724;2023-04-05T11:54:39;4.43;;;3.00;;
11222;SDS011;5668;52.012;8.724;2023-04-05T11:57:11;3.20;;;2.83;;
11222;SDS011;5668;52.012;8.724;2023-04-05T11:59:40;2.90;;;2.70;;
11222;SDS011;5668;52.012;8.724;2023-04-05T12:02:08;4.20;;;2.90;;
11222;SDS011;5668;52.012;8.724;2023-04-05T12:04:36;4.40;;;3.20;;
11222;SDS011;5668;52.012;8.724;2023-04-05T12:07:11;4.37;;;3.00;;
11222;SDS011;5668;52.012;8.724;2023-04-05T12:09:57;2.40;;;2.20;;
11222;SDS011;5668;52.012;8.724;2023-04-05T12:12:25;3.40;;;3.10;;
11222;SDS011;5668;52.012;8.724;2023-04-05T12:14:57;4.87;;;3.20;;
11222;SDS011;5668;52.012;8.724;2023-04-05T12:17:41;3.13;;;2.77;;
11222;SDS011;5668;52.012;8.724;2023-04-05T12:20:12;3.80;;;2.50;;
11222;SDS011;5668;52.012;8.724;2023-04-05T12:22:45;3.57;;;2.47;;
11222;SDS011;5668;52.012;8.724;2023-04-05T12:25:14;2.77;;;2.40;;
11222;SDS011;5668;52.012;8.724;2023-04-05T12:27:42;4.47;;;2.70;;
11222;SDS011;5668;52.012;8.724;2023-04-05T12:30:11;3.47;;;3.17;;
11222;SDS011;5668;52.012;8.724;2023-04-05T12:32:40;3.70;;;3.30;;
11222;SDS011;5668;52.012;8.724;2023-04-05T12:35:14;3.47;;;2.83;;
11222;SDS011;5668;52.012;8.724;2023-04-05T12:37:42;4.03;;;2.63;;
11222;SDS011;5668;52.012;8.724;2023-04-05T12:40:10;3.87;;;3.03;;
11222;SDS011;5668;52.012;8.724;2023-04-05T12:42:39;4.07;;;2.87;;
11222;SDS011;5668;52.012;8.724;2023-04-05T12:45:09;3.10;;;2.60;;
11222;SDS011;5668;52.012;8.724;2023-04-05T12:47:46;3.77;;;2.77;;
11222;SDS011;5668;52.012;8.724;2023-04-05T12:50:24;2.83;;;2.57;;
11222;SDS011;5668;52.012;8.724;2023-04-05T12:52:53;4.33;;;2.93;;
11222;SDS011;5668;52.012;8.724;2023-04-05T12:55:21;2.97;;;2.67;;
11222;SDS011;5668;52.012;8.724;2023-04-05T12:57:49;2.87;;;2.57;;
11222;SDS011;5668;52.012;8.724;2023-04-05T13:00:18;3.43;;;2.83;;
11222;SDS011;5668;52.012;8.724;2023-04-05T13:02:48;3.63;;;2.80;;
11222;SDS011;5668;52.012;8.724;2023-04-05T13:05:19;3.73;;;2.50;;
11222;SDS011;5668;52.012;8.724;2023-04-05T13:07:46;4.53;;;2.70;;
11222;SDS011;5668;52.012;8.724;2023-04-05T13:10:15;3.43;;;2.27;;
11222;SDS011;5668;52.012;8.724;2023-04-05T13:12:43;5.83;;;3.00;;
11222;SDS011;5668;52.012;8.724;2023-04-05T13:15:11;3.55;;;2.65;;
11222;SDS011;5668;52.012;8.724;2023-04-05T13:17:39;4.20;;;3.03;;
11222;SDS011;5668;52.012;8.724;2023-04-05T13:20:07;3.47;;;2.57;;
11222;SDS011;5668;52.012;8.724;2023-04-05T13:22:39;5.65;;;2.30;;
11222;SDS011;5668;52.012;8.724;2023-04-05T13:25:06;2.90;;;2.60;;
11222;SDS011;5668;52.012;8.724;2023-04-05T13:27:34;3.70;;;2.90;;
11222;SDS011;5668;52.012;8.724;2023-04-05T13:30:02;4.70;;;2.73;;
11222;SDS011;5668;52.012;8.724;2023-04-05T13:32:29;4.40;;;2.70;;
11222;SDS011;5668;52.012;8.724;2023-04-05T13:34:57;3.47;;;2.43;;
11222;SDS011;5668;52.012;8.724;2023-04-05T13:37:25;2.67;;;2.28;;
11222;SDS011;5668;52.012;8.724;2023-04-05T13:39:54;2.50;;;2.30;;
11222;SDS011;5668;52.012;8.724;2023-04-05T13:42:21;3.00;;;2.70;;
11222;SDS011;5668;52.012;8.724;2023-04-05T13:44:49;3.93;;;3.13;;
11222;SDS011;5668;52.012;8.724;2023-04-05T13:47:16;3.40;;;2.83;;
11222;SDS011;5668;52.012;8.724;2023-04-05T13:49:44;3.43;;;2.80;;
11222;SDS011;5668;52.012;8.724;2023-04-05T13:52:11;3.10;;;2.80;;
11222;SDS011;5668;52.012;8.724;2023-04-05T13:54:38;5.20;;;3.17;;
11222;SDS011;5668;52.012;8.724;2023-04-05T13:57:07;4.17;;;2.83;;
11222;SDS011;5668;52.012;8.724;2023-04-05T13:59:35;3.67;;;3.03;;
11222;SDS011;5668;52.012;8.724;2023-04-05T14:02:02;2.80;;;2.60;;
11222;SDS011;5668;52.012;8.724;2023-04-05T14:04:30;2.90;;;2.70;;
11222;SDS011;5668;52.012;8.724;2023-04-05T14:06:57;3.80;;;2.70;;
11222;SDS011;5668;52.012;8.724;2023-04-05T14:09:24;3.57;;;2.70;;
11222;SDS011;5668;52.012;8.724;2023-04-05T14:11:51;3.97;;;3.00;;
11222;SDS011;5668;52.012;8.724;2023-04-05T14:14:22;2.97;;;2.77;;
11222;SDS011;5668;52.012;8.724;2023-04-05T14:16:50;3.83;;;3.13;;
11222;SDS011;5668;52.012;8.724;2023-04-05T14:19:17;4.17;;;3.10;;
11222;SDS011;5668;52.012;8.724;2023-04-05T14:21:44;3.20;;;2.50;;
11222;SDS011;5668;52.012;8.724;2023-04-05T14:24:12;4.30;;;2.90;;
11222;SDS011;5668;52.012;8.724;2023-04-05T14:26:39;3.13;;;2.60;;
11222;SDS011;5668;52.012;8.724;2023-04-05T14:29:09;3.13;;;2.83;;
11222;SDS011;5668;52.012;8.724;2023-04-05T14:31:38;3.20;;;2.50;;
11222;SDS011;5668;52.012;8.724;2023-04-05T14:34:05;3.57;;;2.90;;
11222;SDS011;5668;52.012;8.724;2023-04-05T14:36:33;3.67;;;2.80;;
11222;SDS011;5668;52.012;8.724;2023-04-05T14:39:00;3.77;;;2.50;;
11222;SDS011;5668;52.012;8.724;2023-04-05T14:41:27;3.10;;;2.60;;
11222;SDS011;5668;52.012;8.724;2023-04-05T14:43:55;3.97;;;3.00;;
11222;SDS011;5668;52.012;8.724;2023-04-05T14:46:22;2.80;;;2.60;;
11222;SDS011;5668;52.012;8.724;2023-04-05T14:48:51;5.13;;;3.03;;
11222;SDS011;5668;52.012;8.724;2023-04-05T14:51:18;4.27;;;2.87;;
11222;SDS011;5668;52.012;8.724;2023-04-05T14:53:45;3.13;;;2.73;;
11222;SDS011;5668;52.012;8.724;2023-04-05T14:56:13;4.93;;;3.10;;
11222;SDS011;5668;52.012;8.724;2023-04-05T14:58:40;3.17;;;2.73;;
11222;SDS011;5668;52.012;8.724;2023-04-05T15:01:07;3.57;;;3.03;;
11222;SDS011;5668;52.012;8.724;2023-04-05T15:03:35;2.77;;;2.33;;
11222;SDS011;5668;52.012;8.724;2023-04-05T15:06:03;3.37;;;2.70;;
11222;SDS011;5668;52.012;8.724;2023-04-05T15:08:31;3.00;;;2.70;;
11222;SDS011;5668;52.012;8.724;2023-04-05T15:10:58;5.23;;;2.90;;
11222;SDS011;5668;52.012;8.724;2023-04-05T15:13:26;3.27;;;2.87;;
11222;SDS011;5668;52.012;8.724;2023-04-05T15:15:53;4.50;;;2.50;;
11222;SDS011;5668;52.012;8.724;2023-04-05T15:18:20;2.90;;;2.70;;
11222;SDS011;5668;52.012;8.724;2023-04-05T15:20:48;3.43;;;2.87;;